createdAt,value
2018-01-21T00:01:00.590Z,99943.34
2018-01-21T00:03:28.150Z,99945.98
2018-01-21T00:05:56.022Z,99941.92
2018-01-21T00:08:23.603Z,99942.45
2018-01-21T00:10:51.151Z,99937.97
2018-01-21T00:13:19.305Z,99943.30
2018-01-21T00:15:47.749Z,99942.53
2018-01-21T00:18:15.327Z,99938.83
2018-01-21T00:20:42.950Z,99941.66
2018-01-21T00:23:10.778Z,99951.91
2018-01-21T00:25:38.658Z,99951.73
2018-01-21T00:28:06.229Z,99957.75
2018-01-21T00:30:33.822Z,99957.96
2018-01-21T00:33:01.748Z,99961.01
2018-01-21T00:35:29.383Z,99962.23
2018-01-21T00:37:57.028Z,99967.84
2018-01-21T00:40:24.588Z,99963.89
2018-01-21T00:42:52.497Z,99962.02
2018-01-21T00:45:20.174Z,99964.67
2018-01-21T00:47:47.726Z,99965.51
2018-01-21T00:50:15.329Z,99969.52
2018-01-21T00:52:42.877Z,99974.57
2018-01-21T00:55:10.444Z,99984.50
2018-01-21T00:57:38.024Z,99991.01
2018-01-21T01:00:05.878Z,99994.19
2018-01-21T01:02:33.451Z,99995.38
2018-01-21T01:05:01.016Z,99996.54
2018-01-21T01:07:28.598Z,99995.70
2018-01-21T01:09:56.212Z,99999.73
2018-01-21T01:12:23.756Z,100002.63
2018-01-21T01:14:51.416Z,100003.81
2018-01-21T01:17:19.053Z,100002.63
2018-01-21T01:19:46.930Z,100002.63
2018-01-21T01:22:14.515Z,100010.03
2018-01-21T01:24:42.090Z,100008.08
2018-01-21T01:27:09.676Z,100017.55
2018-01-21T01:29:37.241Z,100021.51
2018-01-21T01:32:04.817Z,100022.08
2018-01-21T01:34:32.395Z,100025.12
2018-01-21T01:36:59.994Z,100032.49
2018-01-21T01:39:27.670Z,100032.36
2018-01-21T01:41:55.227Z,100037.41
2018-01-21T01:44:22.788Z,100038.06
2018-01-21T01:46:50.608Z,100041.86
2018-01-21T01:49:18.146Z,100046.59
2018-01-21T01:51:45.721Z,100045.89
2018-01-21T01:54:13.320Z,100046.45
2018-01-21T01:56:40.890Z,100053.90
2018-01-21T01:59:08.598Z,100055.30
2018-01-21T02:01:36.402Z,100054.51
2018-01-21T02:04:03.999Z,100058.81
2018-01-21T02:06:31.579Z,100063.25
2018-01-21T02:08:59.229Z,100067.95
2018-01-21T02:11:26.849Z,100066.33
2018-01-21T02:13:54.400Z,100070.98
2018-01-21T02:16:22.477Z,100072.41
2018-01-21T02:18:50.033Z,100078.98
2018-01-21T02:21:17.617Z,100078.84
2018-01-21T02:23:45.204Z,100079.53
2018-01-21T02:26:12.827Z,100083.67
2018-01-21T02:28:40.428Z,100082.43
2018-01-21T02:31:08.134Z,100087.98
2018-01-21T02:33:35.708Z,100090.16
2018-01-21T02:36:03.299Z,100092.23
2018-01-21T02:38:31.127Z,100095.91
2018-01-21T02:40:58.848Z,100093.97
2018-01-21T02:43:26.433Z,100098.00
2018-01-21T02:45:54.003Z,100095.09
2018-01-21T02:48:21.684Z,100102.65
2018-01-21T02:50:49.276Z,100103.95
2018-01-21T02:53:16.846Z,100110.14
2018-01-21T02:55:44.450Z,100115.41
2018-01-21T02:58:12.006Z,100117.84
2018-01-21T03:00:39.640Z,100112.06
2018-01-21T03:03:07.225Z,100111.30
2018-01-21T03:05:34.778Z,100115.23
2018-01-21T03:08:02.430Z,100124.13
2018-01-21T03:10:30.020Z,100122.80
2018-01-21T03:12:57.600Z,100126.48
2018-01-21T03:15:25.427Z,100130.62
2018-01-21T03:17:53.234Z,100127.02
2018-01-21T03:20:20.824Z,100134.72
2018-01-21T03:22:48.410Z,100138.25
2018-01-21T03:25:16.028Z,100140.33
2018-01-21T03:27:43.611Z,100138.93
2018-01-21T03:30:11.151Z,100149.34
2018-01-21T03:32:38.712Z,100148.80
2018-01-21T03:35:06.291Z,100152.87
2018-01-21T03:37:34.134Z,100160.97
2018-01-21T03:40:01.695Z,100160.98
2018-01-21T03:42:29.305Z,100161.75
2018-01-21T03:44:56.950Z,100160.52
2018-01-21T03:47:24.525Z,100160.50
2018-01-21T03:49:52.078Z,100172.63
2018-01-21T03:52:19.694Z,100167.36
2018-01-21T03:54:47.235Z,100175.88
2018-01-21T03:57:14.806Z,100174.16
2018-01-21T03:59:42.392Z,100180.74
2018-01-21T04:02:10.249Z,100188.63
2018-01-21T04:04:37.835Z,100192.08
2018-01-21T04:07:05.682Z,100189.33
2018-01-21T04:09:33.268Z,100198.77
2018-01-21T04:12:00.924Z,100201.59
2018-01-21T04:14:28.485Z,100204.16
2018-01-21T04:16:56.048Z,100217.73
2018-01-21T04:19:23.648Z,100218.16
2018-01-21T04:21:51.199Z,100219.55
2018-01-21T04:24:19.146Z,100226.59
2018-01-21T04:26:46.682Z,100230.13
2018-01-21T04:29:14.237Z,100226.39
2018-01-21T04:31:41.806Z,100240.05
2018-01-21T04:34:09.773Z,100238.25
2018-01-21T04:36:37.335Z,100241.30
2018-01-21T04:39:05.218Z,100243.58
2018-01-21T04:41:32.968Z,100250.44
2018-01-21T04:44:00.577Z,100257.77
2018-01-21T04:46:28.187Z,100264.13
2018-01-21T04:48:55.753Z,100268.02
2018-01-21T04:51:23.378Z,100272.45
2018-01-21T04:53:50.925Z,100279.29
2018-01-21T04:56:18.499Z,100281.86
2018-01-21T04:58:46.115Z,100286.58
2018-01-21T05:01:13.676Z,100287.95
2018-01-21T05:03:41.272Z,100284.42
2018-01-21T05:06:08.848Z,100292.25
2018-01-21T05:08:36.467Z,100294.28
2018-01-21T05:11:04.052Z,100296.91
2018-01-21T05:13:31.639Z,100301.34
2018-01-21T05:15:59.514Z,100310.23
2018-01-21T05:18:27.054Z,100310.10
2018-01-21T05:20:54.636Z,100312.19
2018-01-21T05:23:22.198Z,100314.79
2018-01-21T05:25:49.792Z,100320.47
2018-01-21T05:28:17.416Z,100321.18
2018-01-21T05:30:45.003Z,100329.81
2018-01-21T05:33:12.582Z,100336.40
2018-01-21T05:35:40.157Z,100332.31
2018-01-21T05:38:07.810Z,100340.92
2018-01-21T05:40:35.389Z,100346.61
2018-01-21T05:43:02.976Z,100355.78
2018-01-21T05:45:30.533Z,100354.83
2018-01-21T05:47:58.104Z,100363.14
2018-01-21T05:50:25.692Z,100368.69
2018-01-21T05:52:53.321Z,100369.55
2018-01-21T05:55:20.922Z,100373.59
2018-01-21T05:57:48.533Z,100380.83
2018-01-21T06:00:16.104Z,100382.95
2018-01-21T06:02:43.664Z,100392.45
2018-01-21T06:05:11.328Z,100392.52
2018-01-21T06:07:38.991Z,100398.23
2018-01-21T06:10:06.566Z,100404.23
2018-01-21T06:12:34.175Z,100402.50
2018-01-21T06:15:02.103Z,100408.73
2018-01-21T06:17:29.655Z,100414.41
2018-01-21T06:19:57.538Z,100410.45
2018-01-21T06:22:25.077Z,100412.67
2018-01-21T06:24:52.665Z,100413.87
2018-01-21T06:27:20.267Z,100410.88
2018-01-21T06:29:47.841Z,100422.50
2018-01-21T06:32:15.405Z,100425.90
2018-01-21T06:34:43.012Z,100432.12
2018-01-21T06:37:10.558Z,100436.42
2018-01-21T06:39:38.142Z,100460.47
2018-01-21T06:42:05.702Z,100457.18
2018-01-21T06:44:33.307Z,100463.60
2018-01-21T06:47:00.871Z,100472.63
2018-01-21T06:49:28.482Z,100477.30
2018-01-21T06:51:56.065Z,100484.83
2018-01-21T06:54:23.651Z,100486.63
2018-01-21T06:56:51.254Z,100492.27
2018-01-21T06:59:18.809Z,100501.30
2018-01-21T07:01:46.676Z,100499.20
2018-01-21T07:04:14.346Z,100495.73
2018-01-21T07:06:41.910Z,100504.04
2018-01-21T07:09:09.518Z,100507.45
2018-01-21T07:11:37.080Z,100516.06
2018-01-21T07:14:04.656Z,100509.78
2018-01-21T07:16:32.256Z,100512.60
2018-01-21T07:18:59.805Z,100522.23
2018-01-21T07:21:27.679Z,100528.92
2018-01-21T07:23:55.234Z,100528.34
2018-01-21T07:26:23.069Z,100534.02
2018-01-21T07:28:50.684Z,100540.92
2018-01-21T07:31:18.299Z,100557.41
2018-01-21T07:33:45.881Z,100557.87
2018-01-21T07:36:13.594Z,100564.75
2018-01-21T07:38:41.237Z,100564.28
2018-01-21T07:41:08.851Z,100573.20
2018-01-21T07:43:36.560Z,100578.97
2018-01-21T07:46:04.125Z,100582.81
2018-01-21T07:48:31.693Z,100587.42
2018-01-21T07:50:59.371Z,100592.66
2018-01-21T07:53:26.990Z,100600.41
2018-01-21T07:55:54.714Z,100603.83
2018-01-21T07:58:22.624Z,100606.60
2018-01-21T08:00:51.218Z,100609.03
2018-01-21T08:03:18.781Z,100616.09
2018-01-21T08:05:47.147Z,100626.67
2018-01-21T08:08:15.017Z,100633.98
2018-01-21T08:10:42.676Z,100638.23
2018-01-21T08:13:10.295Z,100642.38
2018-01-21T08:15:37.890Z,100652.95
2018-01-21T08:18:05.475Z,100655.64
2018-01-21T08:20:33.059Z,100651.06
2018-01-21T08:23:00.697Z,100662.31
2018-01-21T08:25:28.437Z,100662.79
2018-01-21T08:27:56.429Z,100671.48
2018-01-21T08:30:24.009Z,100677.11
2018-01-21T08:32:51.579Z,100682.98
2018-01-21T08:35:24.760Z,100691.66
2018-01-21T08:37:58.061Z,100692.02
2018-01-21T08:40:31.089Z,100695.17
2018-01-21T08:42:58.719Z,100695.97
2018-01-21T08:45:26.290Z,100701.26
2018-01-21T08:47:53.880Z,100707.28
2018-01-21T08:50:21.475Z,100708.95
2018-01-21T08:52:49.065Z,100723.15
2018-01-21T08:55:16.815Z,100721.53
2018-01-21T08:57:44.699Z,100726.55
2018-01-21T09:00:12.279Z,100728.70
2018-01-21T09:02:39.885Z,100734.81
2018-01-21T09:05:07.512Z,100740.70
2018-01-21T09:07:35.127Z,100747.66
2018-01-21T09:10:02.937Z,100752.68
2018-01-21T09:12:30.578Z,100750.88
2018-01-21T09:14:58.151Z,100757.05
2018-01-21T09:17:25.722Z,100757.47
2018-01-21T09:19:53.312Z,100763.09
2018-01-21T09:22:20.906Z,100764.47
2018-01-21T09:24:48.445Z,100770.02
2018-01-21T09:27:16.320Z,100777.61
2018-01-21T09:29:43.923Z,100784.58
2018-01-21T09:32:11.598Z,100796.02
2018-01-21T09:34:39.522Z,100791.91
2018-01-21T09:37:07.123Z,100803.71
2018-01-21T09:39:34.720Z,100809.00
2018-01-21T09:42:02.338Z,100815.30
2018-01-21T09:44:29.897Z,100816.25
2018-01-21T09:46:57.586Z,100821.44
2018-01-21T09:49:25.183Z,100824.41
2018-01-21T09:51:52.956Z,100829.56
2018-01-21T09:54:20.577Z,100835.44
2018-01-21T09:56:48.185Z,100842.05
2018-01-21T09:59:15.791Z,100846.43
2018-01-21T10:01:43.337Z,100852.98
2018-01-21T10:04:11.269Z,100857.69
2018-01-21T10:06:38.868Z,100852.66
2018-01-21T10:09:06.464Z,100861.95
2018-01-21T10:11:34.119Z,100864.37
2018-01-21T10:14:01.836Z,100863.95
2018-01-21T10:16:29.395Z,100867.48
2018-01-21T10:18:56.948Z,100880.45
2018-01-21T10:21:24.513Z,100876.02
2018-01-21T10:23:52.401Z,100879.17
2018-01-21T10:26:19.980Z,100879.11
2018-01-21T10:28:47.544Z,100892.64
2018-01-21T10:31:15.127Z,100895.52
2018-01-21T10:33:42.719Z,100899.90
2018-01-21T10:36:10.384Z,100903.64
2018-01-21T10:38:38.340Z,100904.89
2018-01-21T10:41:05.898Z,100907.46
2018-01-21T10:43:33.507Z,100919.30
2018-01-21T10:46:01.093Z,100912.66
2018-01-21T10:48:28.683Z,100909.30
2018-01-21T10:50:56.546Z,100916.19
2018-01-21T10:53:24.129Z,100919.13
2018-01-21T10:55:51.773Z,100921.37
2018-01-21T10:58:19.349Z,100924.44
2018-01-21T11:00:52.385Z,100926.73
2018-01-21T11:03:20.310Z,100930.04
2018-01-21T11:05:47.905Z,100935.22
2018-01-21T11:08:15.542Z,100935.88
2018-01-21T11:10:43.181Z,100938.52
2018-01-21T11:13:10.794Z,100940.29
2018-01-21T11:15:38.711Z,100943.58
2018-01-21T11:18:06.310Z,100946.38
2018-01-21T11:20:33.942Z,100945.47
2018-01-21T11:23:01.634Z,100945.74
2018-01-21T11:25:29.250Z,100945.77
2018-01-21T11:27:56.882Z,100952.03
2018-01-21T11:30:24.479Z,100952.34
2018-01-21T11:32:52.087Z,100961.39
2018-01-21T11:35:19.909Z,100961.39
2018-01-21T11:37:47.517Z,100964.03
2018-01-21T11:40:15.112Z,100968.82
2018-01-21T11:42:42.679Z,100972.95
2018-01-21T11:45:10.568Z,100974.58
2018-01-21T11:47:38.165Z,100981.56
2018-01-21T11:50:05.797Z,100978.74
2018-01-21T11:52:33.462Z,100982.31
2018-01-21T11:55:01.421Z,100988.06
2018-01-21T11:57:29.286Z,100984.17
2018-01-21T11:59:56.919Z,100994.09
2018-01-21T12:02:24.516Z,100997.23
2018-01-21T12:04:52.174Z,101007.22
2018-01-21T12:07:19.854Z,101006.23
2018-01-21T12:09:47.459Z,101013.00
2018-01-21T12:12:15.126Z,101011.20
2018-01-21T12:14:42.787Z,101012.64
2018-01-21T12:17:10.443Z,101015.34
2018-01-21T12:19:38.111Z,101016.30
2018-01-21T12:22:05.728Z,101021.07
2018-01-21T12:24:33.365Z,101020.53
2018-01-21T12:27:00.997Z,101025.39
2018-01-21T12:29:28.664Z,101027.58
2018-01-21T12:31:56.226Z,101033.03
2018-01-21T12:34:23.864Z,101037.63
2018-01-21T12:36:51.478Z,101041.09
2018-01-21T12:39:19.107Z,101049.72
2018-01-21T12:41:46.714Z,101043.28
2018-01-21T12:44:14.282Z,101047.95
2018-01-21T12:46:41.894Z,101059.77
2018-01-21T12:49:09.470Z,101053.19
2018-01-21T12:51:37.061Z,101055.22
2018-01-21T12:54:04.647Z,101059.98
2018-01-21T12:56:32.303Z,101059.73
2018-01-21T12:58:59.913Z,101063.34
2018-01-21T13:01:27.839Z,101066.63
2018-01-21T13:03:55.438Z,101070.26
2018-01-21T13:06:23.023Z,101077.59
2018-01-21T13:08:50.611Z,101077.28
2018-01-21T13:11:18.242Z,101075.03
2018-01-21T13:13:46.343Z,101084.86
2018-01-21T13:16:14.311Z,101091.78
2018-01-21T13:18:41.882Z,101089.08
2018-01-21T13:21:09.486Z,101098.55
2018-01-21T13:23:37.394Z,101098.81
2018-01-21T13:26:04.955Z,101098.72
2018-01-21T13:28:32.533Z,101107.61
2018-01-21T13:31:00.154Z,101112.60
2018-01-21T13:33:27.743Z,101110.17
2018-01-21T13:35:55.310Z,101117.73
2018-01-21T13:38:23.271Z,101120.44
2018-01-21T13:40:50.867Z,101124.39
2018-01-21T13:43:18.810Z,101128.61
2018-01-21T13:45:46.435Z,101134.52
2018-01-21T13:48:14.072Z,101140.47
2018-01-21T13:50:41.673Z,101142.55
2018-01-21T13:53:09.312Z,101139.63
2018-01-21T13:55:36.952Z,101146.17
2018-01-21T13:58:04.581Z,101148.81
2018-01-21T14:00:32.170Z,101147.23
2018-01-21T14:03:00.117Z,101155.34
2018-01-21T14:05:27.719Z,101158.20
2018-01-21T14:07:55.289Z,101169.77
2018-01-21T14:10:22.862Z,101178.34
2018-01-21T14:12:50.494Z,101172.00
2018-01-21T14:15:18.128Z,101178.12
2018-01-21T14:17:45.781Z,101181.23
2018-01-21T14:20:13.508Z,101182.61
2018-01-21T14:22:41.110Z,101183.56
2018-01-21T14:25:08.726Z,101189.15
2018-01-21T14:27:36.322Z,101191.78
2018-01-21T14:30:03.966Z,101188.42
2018-01-21T14:32:31.589Z,101192.84
2018-01-21T14:34:59.271Z,101204.77
2018-01-21T14:37:27.078Z,101205.33
2018-01-21T14:39:54.669Z,101212.64
2018-01-21T14:42:22.229Z,101218.58
2018-01-21T14:44:49.824Z,101221.63
2018-01-21T14:47:17.427Z,101221.28
2018-01-21T14:49:45.013Z,101219.84
2018-01-21T14:52:12.683Z,101223.97
2018-01-21T14:54:40.343Z,101223.97
2018-01-21T14:57:07.952Z,101227.51
2018-01-21T14:59:35.585Z,101228.16
2018-01-21T15:02:03.200Z,101232.53
2018-01-21T15:04:30.758Z,101233.20
2018-01-21T15:06:58.839Z,101228.78
2018-01-21T15:09:26.437Z,101236.48
2018-01-21T15:11:54.365Z,101239.30
2018-01-21T15:14:21.968Z,101245.36
2018-01-21T15:16:49.587Z,101242.83
2018-01-21T15:19:17.138Z,101246.03
2018-01-21T15:21:44.827Z,101249.31
2018-01-21T15:24:12.466Z,101262.02
2018-01-21T15:26:40.118Z,101261.55
2018-01-21T15:29:07.745Z,101263.51
2018-01-21T15:31:35.317Z,101267.20
2018-01-21T15:34:02.946Z,101263.62
2018-01-21T15:36:30.588Z,101270.63
2018-01-21T15:38:58.167Z,101275.69
2018-01-21T15:41:25.748Z,101274.00
2018-01-21T15:43:53.338Z,101272.98
2018-01-21T15:46:20.924Z,101274.53
2018-01-21T15:48:48.512Z,101279.59
2018-01-21T15:51:16.165Z,101281.07
2018-01-21T15:53:43.787Z,101286.09
2018-01-21T15:56:11.440Z,101293.72
2018-01-21T15:58:39.009Z,101295.45
2018-01-21T16:01:06.634Z,101299.47
2018-01-21T16:03:34.194Z,101307.48
2018-01-21T16:06:01.763Z,101308.48
2018-01-21T16:08:29.415Z,101309.00
2018-01-21T16:10:57.026Z,101313.54
2018-01-21T16:13:24.653Z,101314.76
2018-01-21T16:15:52.297Z,101321.93
2018-01-21T16:18:20.248Z,101314.82
2018-01-21T16:20:47.919Z,101318.83
2018-01-21T16:23:15.488Z,101328.80
2018-01-21T16:25:43.085Z,101327.16
2018-01-21T16:28:10.659Z,101331.47
2018-01-21T16:30:38.365Z,101334.31
2018-01-21T16:33:05.926Z,101332.01
2018-01-21T16:35:33.567Z,101331.67
2018-01-21T16:38:13.175Z,101330.41
2018-01-21T16:40:41.088Z,101329.25
2018-01-21T16:43:08.661Z,101343.92
2018-01-21T16:45:36.358Z,101337.90
2018-01-21T16:48:04.455Z,101335.69
2018-01-21T16:50:32.189Z,101341.44
2018-01-21T16:52:59.785Z,101350.56
2018-01-21T16:55:27.345Z,101349.83
2018-01-21T16:57:54.955Z,101355.52
2018-01-21T17:00:22.747Z,101362.06
2018-01-21T17:02:50.389Z,101354.15
2018-01-21T17:05:18.022Z,101348.87
2018-01-21T17:07:45.626Z,101348.13
2018-01-21T17:10:13.217Z,101347.87
2018-01-21T17:12:40.847Z,101354.98
2018-01-21T17:15:08.582Z,101354.09
2018-01-21T17:17:36.138Z,101357.79
2018-01-21T17:20:04.001Z,101357.31
2018-01-21T17:22:31.600Z,101352.94
2018-01-21T17:24:59.187Z,101359.90
2018-01-21T17:27:26.780Z,101354.31
2018-01-21T17:29:54.445Z,101358.42
2018-01-21T17:32:22.080Z,101364.70
2018-01-21T17:34:49.670Z,101360.53
2018-01-21T17:37:17.284Z,101359.78
2018-01-21T17:39:44.846Z,101369.33
2018-01-21T17:42:12.432Z,101361.07
2018-01-21T17:44:40.021Z,101362.53
2018-01-21T17:47:07.685Z,101360.42
2018-01-21T17:49:35.249Z,101364.56
2018-01-21T17:52:02.870Z,101367.30
2018-01-21T17:54:30.417Z,101366.25
2018-01-21T17:56:57.965Z,101365.52
2018-01-21T17:59:25.586Z,101355.96
2018-01-21T18:01:53.180Z,101355.59
2018-01-21T18:04:20.752Z,101355.37
2018-01-21T18:06:48.417Z,101355.55
2018-01-21T18:09:16.046Z,101366.94
2018-01-21T18:11:43.681Z,101363.80
2018-01-21T18:14:11.314Z,101366.94
2018-01-21T18:16:38.983Z,101363.13
2018-01-21T18:19:06.592Z,101366.39
2018-01-21T18:21:34.401Z,101372.29
2018-01-21T18:24:02.040Z,101370.02
2018-01-21T18:26:29.677Z,101370.81
2018-01-21T18:28:57.673Z,101365.78
2018-01-21T18:31:25.249Z,101364.11
2018-01-21T18:33:52.935Z,101367.08
2018-01-21T18:36:20.629Z,101363.35
2018-01-21T18:38:48.221Z,101365.84
2018-01-21T18:41:15.880Z,101373.05
2018-01-21T18:43:43.515Z,101369.37
2018-01-21T18:46:11.105Z,101378.05
2018-01-21T18:48:38.661Z,101374.37
2018-01-21T18:51:06.247Z,101375.63
2018-01-21T18:53:33.827Z,101374.44
2018-01-21T18:56:01.445Z,101382.59
2018-01-21T18:58:29.308Z,101382.80
2018-01-21T19:00:56.906Z,101393.42
2018-01-21T19:03:24.591Z,101383.01
2018-01-21T19:05:52.154Z,101387.13
2018-01-21T19:08:19.761Z,101390.25
2018-01-21T19:10:47.334Z,101400.39
2018-01-21T19:13:14.966Z,101404.13
2018-01-21T19:15:42.573Z,101403.23
2018-01-21T19:18:10.183Z,101403.83
2018-01-21T19:20:37.742Z,101399.52
2018-01-21T19:23:05.310Z,101405.16
2018-01-21T19:25:33.116Z,101408.88
2018-01-21T19:28:00.764Z,101405.94
2018-01-21T19:30:28.959Z,101413.84
2018-01-21T19:32:56.673Z,101417.13
2018-01-21T19:35:24.270Z,101415.55
2018-01-21T19:37:51.942Z,101415.55
2018-01-21T19:40:23.267Z,101413.94
2018-01-21T19:42:52.536Z,101409.17
2018-01-21T19:45:20.170Z,101413.50
2018-01-21T19:47:47.797Z,101406.51
2018-01-21T19:50:15.731Z,101402.75
2018-01-21T19:52:43.474Z,101404.32
2018-01-21T19:55:11.114Z,101406.41
2018-01-21T19:57:39.061Z,101397.72
2018-01-21T20:00:06.657Z,101399.36
2018-01-21T20:02:34.338Z,101405.69
2018-01-21T20:05:01.910Z,101410.19
2018-01-21T20:07:29.514Z,101403.78
2018-01-21T20:09:57.244Z,101398.98
2018-01-21T20:12:25.242Z,101408.09
2018-01-21T20:14:53.106Z,101410.40
2018-01-21T20:17:20.753Z,101407.19
2018-01-21T20:19:48.354Z,101409.17
2018-01-21T20:22:16.170Z,101400.30
2018-01-21T20:24:43.801Z,101399.75
2018-01-21T20:27:11.439Z,101398.62
2018-01-21T20:29:39.175Z,101393.34
2018-01-21T20:32:06.761Z,101408.55
2018-01-21T20:34:34.402Z,101402.92
2018-01-21T20:37:02.917Z,101405.51
2018-01-21T20:39:30.524Z,101405.66
2018-01-21T20:41:58.254Z,101409.87
2018-01-21T20:44:25.832Z,101408.05
2018-01-21T20:46:53.460Z,101411.66
2018-01-21T20:49:21.074Z,101410.30
2018-01-21T20:51:54.125Z,101413.41
2018-01-21T20:54:27.311Z,101414.99
2018-01-21T20:56:55.018Z,101419.03
2018-01-21T20:59:22.775Z,101421.04
2018-01-21T21:01:50.450Z,101418.12
2018-01-21T21:04:18.041Z,101411.81
2018-01-21T21:06:45.635Z,101419.70
2018-01-21T21:09:13.299Z,101429.28
2018-01-21T21:11:40.861Z,101424.73
2018-01-21T21:14:08.424Z,101411.62
2018-01-21T21:16:36.000Z,101400.97
2018-01-21T21:19:03.848Z,101394.57
2018-01-21T21:21:31.501Z,101391.94
2018-01-21T21:23:59.079Z,101381.24
2018-01-21T21:26:26.692Z,101383.84
2018-01-21T21:28:54.385Z,101374.52
2018-01-21T21:31:22.241Z,101373.09
2018-01-21T21:33:49.813Z,101375.77
2018-01-21T21:36:17.472Z,101366.91
2018-01-21T21:38:45.429Z,101371.50
2018-01-21T21:41:13.057Z,101371.84
2018-01-21T21:43:41.061Z,101373.05
2018-01-21T21:46:08.608Z,101371.64
2018-01-21T21:48:36.195Z,101371.84
2018-01-21T21:51:03.755Z,101369.06
2018-01-21T21:53:31.345Z,101361.57
2018-01-21T21:55:58.909Z,101358.52
2018-01-21T21:58:26.524Z,101362.30
2018-01-21T22:00:54.118Z,101362.72
2018-01-21T22:03:21.736Z,101364.72
2018-01-21T22:05:49.429Z,101365.62
2018-01-21T22:08:17.716Z,101360.23
2018-01-21T22:10:45.389Z,101366.07
2018-01-21T22:13:13.209Z,101367.32
2018-01-21T22:15:40.803Z,101371.94
2018-01-21T22:18:08.495Z,101372.68
2018-01-21T22:20:36.147Z,101364.64
2018-01-21T22:23:03.712Z,101368.61
2018-01-21T22:25:31.300Z,101368.56
2018-01-21T22:27:58.886Z,101362.08
2018-01-21T22:30:26.471Z,101361.28
2018-01-21T22:32:54.095Z,101364.24
2018-01-21T22:35:21.661Z,101351.89
2018-01-21T22:37:49.388Z,101359.30
2018-01-21T22:40:16.946Z,101348.66
2018-01-21T22:42:44.533Z,101347.05
2018-01-21T22:45:12.153Z,101354.27
2018-01-21T22:47:39.702Z,101359.11
2018-01-21T22:50:07.322Z,101361.52
2018-01-21T22:52:34.862Z,101352.46
2018-01-21T22:55:02.491Z,101356.58
2018-01-21T22:57:30.036Z,101359.92
2018-01-21T22:59:57.603Z,101361.71
2018-01-21T23:02:25.201Z,101344.89
2018-01-21T23:04:52.752Z,101343.44
2018-01-21T23:07:20.331Z,101335.37
2018-01-21T23:09:47.876Z,101335.09
2018-01-21T23:12:15.560Z,101334.09
2018-01-21T23:14:43.270Z,101327.29
2018-01-21T23:17:10.962Z,101325.00
2018-01-21T23:19:38.525Z,101324.43
2018-01-21T23:22:06.160Z,101327.76
2018-01-21T23:24:33.829Z,101316.20
2018-01-21T23:27:01.428Z,101316.66
2018-01-21T23:29:29.014Z,101315.97
2018-01-21T23:31:56.608Z,101320.50
2018-01-21T23:34:24.154Z,101326.01
2018-01-21T23:36:51.747Z,101313.08
2018-01-21T23:39:19.304Z,101316.75
2018-01-21T23:41:46.880Z,101319.11
2018-01-21T23:44:14.490Z,101314.23
2018-01-21T23:46:42.037Z,101302.20
2018-01-21T23:49:09.653Z,101301.89
2018-01-21T23:51:37.210Z,101307.61
2018-01-21T23:54:04.805Z,101318.75
2018-01-21T23:56:32.374Z,101317.66
2018-01-21T23:58:59.937Z,101311.92
